Time,TemperatureF,DewpointF,PressureIn,WindDirection,WindDirectionDegrees,WindSpeedMPH,WindSpeedGustMPH,Humidity,HourlyPrecipIn,Conditions,Clouds,dailyrainin,SoftwareType,DateUTC
2013-01-15 00:27:00,40.0,27.0,30.27,North,0,6.0,6.0,62,0.00,,,0.00,TxWx,2013-01-15 05:27:00,
2013-01-15 00:34:00,40.0,27.0,30.28,NNW,337,5.0,6.0,62,0.00,,,0.00,TxWx,2013-01-15 05:34:00,
2013-01-15 00:40:00,40.0,27.0,30.27,North,0,10.0,11.0,61,0.00,,,0.00,TxWx,2013-01-15 05:40:00,
2013-01-15 00:45:00,40.0,26.0,30.28,North,0,6.0,6.0,61,0.00,,,0.00,TxWx,2013-01-15 05:45:00,
2013-01-15 00:51:00,40.0,26.0,30.27,NE,45,6.0,6.0,60,0.00,,,0.00,TxWx,2013-01-15 05:51:00,
2013-01-15 00:56:00,40.0,26.0,30.28,NNW,337,10.0,11.0,60,0.00,,,0.00,TxWx,2013-01-15 05:56:00,
2013-01-15 01:01:00,40.0,26.0,30.28,North,0,9.0,9.0,60,0.00,,,0.00,TxWx,2013-01-15 06:01:00,
2013-01-15 01:06:00,40.0,26.0,30.26,NNE,22,6.0,8.0,60,0.00,,,0.00,TxWx,2013-01-15 06:06:00,
2013-01-15 01:11:00,40.0,26.0,30.25,NNE,22,8.0,8.0,60,0.00,,,0.00,TxWx,2013-01-15 06:11:00,
2013-01-15 01:16:00,40.0,26.0,30.24,NE,45,7.0,8.0,60,0.00,,,0.00,TxWx,2013-01-15 06:16:00,
2013-01-15 01:21:00,39.0,25.0,30.23,NE,45,4.0,6.0,60,0.00,,,0.00,TxWx,2013-01-15 06:21:00,
2013-01-15 01:26:00,39.0,25.0,30.24,NNE,22,8.0,9.0,60,0.00,,,0.00,TxWx,2013-01-15 06:26:00,
2013-01-15 01:31:00,39.0,25.0,30.24,WNW,292,5.0,6.0,60,0.00,,,0.00,TxWx,2013-01-15 06:31:00,
2013-01-15 01:37:00,39.0,25.0,30.25,North,0,6.0,8.0,60,0.00,,,0.00,TxWx,2013-01-15 06:37:00,
2013-01-15 01:42:00,39.0,25.0,30.25,NNE,22,7.0,7.0,60,0.00,,,0.00,TxWx,2013-01-15 06:42:00,
2013-01-15 01:47:00,39.0,25.0,30.23,South,180,1.0,2.0,60,0.00,,,0.00,TxWx,2013-01-15 06:47:00,
2013-01-15 01:52:00,39.0,25.0,30.24,NE,45,5.0,5.0,60,0.00,,,0.00,TxWx,2013-01-15 06:52:00,
2013-01-15 01:57:00,39.0,25.0,30.23,NNE,22,8.0,9.0,60,0.00,,,0.00,TxWx,2013-01-15 06:57:00,
2013-01-15 02:03:00,39.0,25.0,30.24,NNE,22,3.0,4.0,61,0.00,,,0.00,TxWx,2013-01-15 07:03:00,
2013-01-15 02:08:00,39.0,26.0,30.24,North,0,8.0,10.0,61,0.00,,,0.00,TxWx,2013-01-15 07:08:00,
2013-01-15 02:13:00,39.0,26.0,30.25,North,0,6.0,9.0,61,0.00,,,0.00,TxWx,2013-01-15 07:13:00,
2013-01-15 02:18:00,39.0,26.0,30.24,NNE,22,5.0,6.0,61,0.00,,,0.00,TxWx,2013-01-15 07:18:00,
2013-01-15 02:23:00,39.0,25.0,30.23,East,90,3.0,5.0,61,0.00,,,0.00,TxWx,2013-01-15 07:23:00,
2013-01-15 02:28:00,39.0,25.0,30.22,North,0,8.0,8.0,61,0.00,,,0.00,TxWx,2013-01-15 07:28:00,
2013-01-15 02:33:00,39.0,26.0,30.23,North,0,7.0,7.0,61,0.00,,,0.00,TxWx,2013-01-15 07:33:00,
2013-01-15 02:38:00,39.0,26.0,30.22,NNE,22,10.0,10.0,61,0.00,,,0.00,TxWx,2013-01-15 07:38:00,
2013-01-15 02:43:00,39.0,26.0,30.23,NW,315,6.0,6.0,61,0.00,,,0.00,TxWx,2013-01-15 07:43:00,
2013-01-15 02:48:00,39.0,26.0,30.22,NE,45,5.0,6.0,62,0.00,,,0.00,TxWx,2013-01-15 07:48:00,
2013-01-15 02:53:00,39.0,26.0,30.22,NNE,22,3.0,3.0,62,0.00,,,0.00,TxWx,2013-01-15 07:53:00,
2013-01-15 02:58:00,39.0,26.0,30.22,NNE,22,6.0,6.0,62,0.00,,,0.00,TxWx,2013-01-15 07:58:00,
2013-01-15 03:04:00,39.0,26.0,30.22,NW,315,5.0,6.0,62,0.00,,,0.00,TxWx,2013-01-15 08:04:00,
2013-01-15 03:09:00,39.0,26.0,30.23,NNE,22,6.0,7.0,62,0.00,,,0.00,TxWx,2013-01-15 08:09:00,
2013-01-15 03:14:00,39.0,26.0,30.23,NNW,337,2.0,3.0,62,0.00,,,0.00,TxWx,2013-01-15 08:14:00,
2013-01-15 03:19:00,39.0,26.0,30.23,NNE,22,4.0,4.0,63,0.00,,,0.00,TxWx,2013-01-15 08:19:00,
2013-01-15 03:24:00,39.0,26.0,30.22,NNE,22,3.0,3.0,63,0.00,,,0.00,TxWx,2013-01-15 08:24:00,
2013-01-15 03:29:00,38.0,25.0,30.22,NNE,22,3.0,4.0,63,0.00,,,0.00,TxWx,2013-01-15 08:29:00,
2013-01-15 03:35:00,38.0,26.0,30.23,NNE,22,4.0,5.0,63,0.00,,,0.00,TxWx,2013-01-15 08:35:00,
2013-01-15 03:40:00,38.0,26.0,30.23,North,0,6.0,6.0,63,0.00,,,0.00,TxWx,2013-01-15 08:40:00,
2013-01-15 03:45:00,38.0,26.0,30.23,NNE,22,3.0,3.0,64,0.00,,,0.00,TxWx,2013-01-15 08:45:00,
2013-01-15 03:50:00,38.0,26.0,30.23,North,0,3.0,5.0,64,0.00,,,0.00,TxWx,2013-01-15 08:50:00,
2013-01-15 03:55:00,38.0,26.0,30.22,NNE,22,3.0,5.0,64,0.00,,,0.00,TxWx,2013-01-15 08:55:00,
2013-01-15 04:00:00,38.0,26.0,30.22,North,0,4.0,4.0,64,0.00,,,0.00,TxWx,2013-01-15 09:00:00,
2013-01-15 04:06:00,38.0,26.0,30.22,NNE,22,3.0,3.0,65,0.00,,,0.00,TxWx,2013-01-15 09:06:00,
2013-01-15 04:11:00,38.0,26.0,30.22,NNW,337,4.0,4.0,65,0.00,,,0.00,TxWx,2013-01-15 09:11:00,
2013-01-15 04:16:00,37.0,25.0,30.21,North,0,3.0,4.0,65,0.00,,,0.00,TxWx,2013-01-15 09:16:00,
2013-01-15 04:21:00,37.0,25.0,30.21,NNE,22,5.0,5.0,65,0.00,,,0.00,TxWx,2013-01-15 09:21:00,
2013-01-15 04:26:00,37.0,25.0,30.21,North,0,3.0,4.0,65,0.00,,,0.00,TxWx,2013-01-15 09:26:00,
2013-01-15 04:32:00,37.0,25.0,30.21,NNE,22,3.0,3.0,65,0.00,,,0.00,TxWx,2013-01-15 09:32:00,
2013-01-15 04:37:00,37.0,26.0,30.21,NNE,22,3.0,4.0,66,0.00,,,0.00,TxWx,2013-01-15 09:37:00,
2013-01-15 04:42:00,37.0,26.0,30.20,NNE,22,3.0,4.0,66,0.00,,,0.00,TxWx,2013-01-15 09:42:00,
2013-01-15 04:47:00,37.0,26.0,30.20,North,0,3.0,4.0,66,0.00,,,0.00,TxWx,2013-01-15 09:47:00,
2013-01-15 04:52:00,36.0,25.0,30.20,ENE,67,3.0,5.0,67,0.00,,,0.00,TxWx,2013-01-15 09:52:00,
2013-01-15 04:57:00,36.0,25.0,30.21,North,0,3.0,3.0,67,0.00,,,0.00,TxWx,2013-01-15 09:57:00,
2013-01-15 05:03:00,36.0,25.0,30.22,NE,45,3.0,4.0,68,0.00,,,0.00,TxWx,2013-01-15 10:03:00,
2013-01-15 05:08:00,36.0,25.0,30.22,NNE,22,4.0,5.0,68,0.00,,,0.00,TxWx,2013-01-15 10:08:00,
2013-01-15 05:13:00,36.0,25.0,30.23,NNE,22,4.0,6.0,68,0.00,,,0.00,TxWx,2013-01-15 10:13:00,
2013-01-15 05:19:00,36.0,25.0,30.23,North,0,3.0,3.0,68,0.00,,,0.00,TxWx,2013-01-15 10:19:00,
2013-01-15 05:24:00,36.0,25.0,30.23,NE,45,3.0,3.0,68,0.00,,,0.00,TxWx,2013-01-15 10:24:00,
2013-01-15 05:29:00,36.0,25.0,30.24,NNE,22,3.0,3.0,68,0.00,,,0.00,TxWx,2013-01-15 10:29:00,
2013-01-15 05:34:00,36.0,25.0,30.24,NE,45,3.0,4.0,68,0.00,,,0.00,TxWx,2013-01-15 10:34:00,
2013-01-15 05:39:00,36.0,25.0,30.24,NW,315,5.0,5.0,68,0.00,,,0.00,TxWx,2013-01-15 10:39:00,
2013-01-15 05:44:00,36.0,25.0,30.24,NE,45,3.0,3.0,68,0.00,,,0.00,TxWx,2013-01-15 10:44:00,
2013-01-15 05:49:00,36.0,25.0,30.24,NE,45,3.0,3.0,68,0.00,,,0.00,TxWx,2013-01-15 10:49:00,
2013-01-15 05:54:00,36.0,25.0,30.24,NNE,22,5.0,5.0,68,0.00,,,0.00,TxWx,2013-01-15 10:54:00,
2013-01-15 05:59:00,36.0,25.0,30.24,North,0,3.0,4.0,68,0.00,,,0.00,TxWx,2013-01-15 10:59:00,
2013-01-15 06:04:00,36.0,25.0,30.24,NNE,22,3.0,3.0,68,0.00,,,0.00,TxWx,2013-01-15 11:04:00,
2013-01-15 06:09:00,36.0,25.0,30.25,NNE,22,3.0,3.0,68,0.00,,,0.00,TxWx,2013-01-15 11:09:00,
2013-01-15 06:15:00,36.0,25.0,30.25,NNE,22,1.0,1.0,68,0.00,,,0.00,TxWx,2013-01-15 11:15:00,
2013-01-15 06:20:00,36.0,25.0,30.25,NNE,22,5.0,5.0,68,0.00,,,0.00,TxWx,2013-01-15 11:20:00,
2013-01-15 06:25:00,36.0,25.0,30.26,NNE,22,5.0,6.0,68,0.00,,,0.00,TxWx,2013-01-15 11:25:00,
2013-01-15 06:30:00,37.0,26.0,30.26,NNE,22,3.0,3.0,68,0.00,,,0.00,TxWx,2013-01-15 11:30:00,
2013-01-15 06:36:00,37.0,26.0,30.26,ENE,67,3.0,3.0,67,0.00,,,0.00,TxWx,2013-01-15 11:36:00,
2013-01-15 06:41:00,37.0,26.0,30.26,NE,45,3.0,5.0,67,0.00,,,0.00,TxWx,2013-01-15 11:41:00,
2013-01-15 06:46:00,37.0,26.0,30.26,North,0,9.0,9.0,67,0.00,,,0.00,TxWx,2013-01-15 11:46:00,
2013-01-15 06:51:00,37.0,26.0,30.26,NNE,22,3.0,4.0,66,0.00,,,0.00,TxWx,2013-01-15 11:51:00,
2013-01-15 06:56:00,37.0,26.0,30.26,NE,45,5.0,6.0,66,0.00,,,0.00,TxWx,2013-01-15 11:56:00,
2013-01-15 07:01:00,37.0,25.0,30.26,ENE,67,3.0,3.0,65,0.00,,,0.00,TxWx,2013-01-15 12:01:00,
2013-01-15 07:07:00,37.0,25.0,30.26,NNE,22,6.0,6.0,65,0.00,,,0.00,TxWx,2013-01-15 12:07:00,
2013-01-15 07:12:00,37.0,25.0,30.27,NNE,22,4.0,4.0,65,0.00,,,0.00,TxWx,2013-01-15 12:12:00,
2013-01-15 07:17:00,37.0,25.0,30.27,NNE,22,3.0,5.0,64,0.00,,,0.00,TxWx,2013-01-15 12:17:00,
2013-01-15 07:23:00,37.0,25.0,30.27,NNE,22,6.0,6.0,64,0.00,,,0.00,TxWx,2013-01-15 12:23:00,
2013-01-15 07:28:00,37.0,25.0,30.27,NNE,22,4.0,5.0,64,0.00,,,0.00,TxWx,2013-01-15 12:28:00,
2013-01-15 07:33:00,37.0,25.0,30.28,NW,315,3.0,3.0,64,0.00,,,0.00,TxWx,2013-01-15 12:33:00,
2013-01-15 07:38:00,37.0,25.0,30.27,NNE,22,2.0,3.0,64,0.00,,,0.00,TxWx,2013-01-15 12:38:00,
2013-01-15 07:43:00,37.0,25.0,30.27,North,0,4.0,5.0,64,0.00,,,0.00,TxWx,2013-01-15 12:43:00,
2013-01-15 07:49:00,37.0,25.0,30.28,NNW,337,8.0,8.0,63,0.00,,,0.00,TxWx,2013-01-15 12:49:00,
2013-01-15 07:54:00,37.0,25.0,30.28,NE,45,6.0,6.0,63,0.00,,,0.00,TxWx,2013-01-15 12:54:00,
2013-01-15 07:59:00,37.0,25.0,30.28,ESE,112,1.0,2.0,63,0.00,,,0.00,TxWx,2013-01-15 12:59:00,
2013-01-15 08:04:00,37.0,24.0,30.28,ENE,67,4.0,5.0,63,0.00,,,0.00,TxWx,2013-01-15 13:04:00,
2013-01-15 08:10:00,37.0,25.0,30.28,NNE,22,3.0,3.0,63,0.00,,,0.00,TxWx,2013-01-15 13:10:00,
2013-01-15 08:15:00,37.0,25.0,30.28,North,0,2.0,4.0,63,0.00,,,0.00,TxWx,2013-01-15 13:15:00,
2013-01-15 08:20:00,37.0,25.0,30.28,ENE,67,2.0,3.0,64,0.00,,,0.00,TxWx,2013-01-15 13:20:00,
2013-01-15 08:25:00,37.0,25.0,30.29,ENE,67,3.0,4.0,64,0.00,,,0.00,TxWx,2013-01-15 13:25:00,
2013-01-15 08:30:00,37.0,25.0,30.29,NNE,22,2.0,3.0,65,0.00,,,0.00,TxWx,2013-01-15 13:30:00,
2013-01-15 08:35:00,36.0,24.0,30.29,ENE,67,2.0,3.0,65,0.00,,,0.00,TxWx,2013-01-15 13:35:00,
2013-01-15 08:41:00,36.0,25.0,30.30,North,0,1.0,2.0,66,0.00,,,0.00,TxWx,2013-01-15 13:41:00,
2013-01-15 08:46:00,36.0,25.0,30.30,NNE,22,3.0,3.0,66,0.00,,,0.00,TxWx,2013-01-15 13:46:00,
2013-01-15 08:51:00,36.0,25.0,30.31,ENE,67,2.0,3.0,66,0.00,,,0.00,TxWx,2013-01-15 13:51:00,
2013-01-15 08:56:00,36.0,25.0,30.31,East,90,1.0,2.0,66,0.00,,,0.00,TxWx,2013-01-15 13:56:00,
2013-01-15 09:01:00,37.0,26.0,30.32,East,90,2.0,3.0,67,0.00,,,0.00,TxWx,2013-01-15 14:01:00,
2013-01-15 09:07:00,38.0,27.0,30.32,SSE,157,0.0,1.0,66,0.00,,,0.00,TxWx,2013-01-15 14:07:00,
2013-01-15 09:12:00,38.0,26.0,30.32,ENE,67,1.0,1.0,66,0.00,,,0.00,TxWx,2013-01-15 14:12:00,
2013-01-15 09:17:00,38.0,26.0,30.32,ENE,67,3.0,3.0,65,0.00,,,0.00,TxWx,2013-01-15 14:17:00,
2013-01-15 09:22:00,38.0,26.0,30.31,NNE,22,1.0,2.0,65,0.00,,,0.00,TxWx,2013-01-15 14:22:00,
2013-01-15 09:27:00,38.0,26.0,30.31,ENE,67,2.0,3.0,65,0.00,,,0.00,TxWx,2013-01-15 14:27:00,
2013-01-15 09:32:00,38.0,26.0,30.31,NE,45,3.0,4.0,65,0.00,,,0.00,TxWx,2013-01-15 14:32:00,
2013-01-15 09:38:00,38.0,26.0,30.31,NE,45,3.0,4.0,64,0.00,,,0.00,TxWx,2013-01-15 14:38:00,
2013-01-15 09:43:00,38.0,26.0,30.31,East,90,3.0,3.0,64,0.00,,,0.00,TxWx,2013-01-15 14:43:00,
2013-01-15 09:48:00,38.0,26.0,30.31,NE,45,1.0,1.0,64,0.00,,,0.00,TxWx,2013-01-15 14:48:00,
2013-01-15 09:53:00,39.0,27.0,30.31,NE,45,3.0,3.0,64,0.00,,,0.00,TxWx,2013-01-15 14:53:00,
2013-01-15 09:58:00,39.0,26.0,30.31,ENE,67,2.0,2.0,63,0.00,,,0.00,TxWx,2013-01-15 14:58:00,
2013-01-15 10:03:00,39.0,26.0,30.31,NE,45,1.0,1.0,63,0.00,,,0.00,TxWx,2013-01-15 15:03:00,
2013-01-15 10:08:00,40.0,27.0,30.31,NNE,22,6.0,8.0,62,0.00,,,0.00,TxWx,2013-01-15 15:08:00,
2013-01-15 10:14:00,40.0,26.0,30.31,NNE,22,5.0,5.0,61,0.00,,,0.00,TxWx,2013-01-15 15:14:00,
2013-01-15 10:19:00,40.0,26.0,30.30,ESE,112,3.0,5.0,61,0.00,,,0.00,TxWx,2013-01-15 15:19:00,
2013-01-15 10:24:00,40.0,26.0,30.30,NNE,22,4.0,4.0,61,0.00,,,0.00,TxWx,2013-01-15 15:24:00,
2013-01-15 10:29:00,40.0,26.0,30.30,NNE,22,4.0,6.0,61,0.00,,,0.00,TxWx,2013-01-15 15:29:00,
2013-01-15 10:34:00,40.0,26.0,30.30,NNE,22,1.0,3.0,60,0.00,,,0.00,TxWx,2013-01-15 15:34:00,
2013-01-15 10:40:00,40.0,26.0,30.30,NNW,337,3.0,5.0,60,0.00,,,0.00,TxWx,2013-01-15 15:40:00,
2013-01-15 10:45:00,40.0,26.0,30.29,NW,315,6.0,6.0,59,0.00,,,0.00,TxWx,2013-01-15 15:45:00,
2013-01-15 10:50:00,40.0,26.0,30.29,NNE,22,5.0,8.0,59,0.00,,,0.00,TxWx,2013-01-15 15:50:00,
2013-01-15 10:55:00,40.0,25.0,30.29,NNE,22,5.0,5.0,58,0.00,,,0.00,TxWx,2013-01-15 15:55:00,
2013-01-15 11:01:00,40.0,25.0,30.29,NW,315,5.0,6.0,57,0.00,,,0.00,TxWx,2013-01-15 16:01:00,
2013-01-15 11:06:00,41.0,25.0,30.29,WNW,292,4.0,6.0,56,0.00,,,0.00,TxWx,2013-01-15 16:06:00,
2013-01-15 11:11:00,40.0,24.0,30.30,NNE,22,8.0,9.0,56,0.00,,,0.00,TxWx,2013-01-15 16:11:00,
2013-01-15 11:16:00,40.0,24.0,30.29,NW,315,5.0,6.0,55,0.00,,,0.00,TxWx,2013-01-15 16:16:00,
2013-01-15 11:21:00,40.0,24.0,30.29,ENE,67,3.0,5.0,55,0.00,,,0.00,TxWx,2013-01-15 16:21:00,
2013-01-15 11:27:00,40.0,24.0,30.29,NW,315,5.0,5.0,55,0.00,,,0.00,TxWx,2013-01-15 16:27:00,
2013-01-15 11:32:00,40.0,24.0,30.28,North,0,5.0,6.0,55,0.00,,,0.00,TxWx,2013-01-15 16:32:00,
2013-01-15 11:37:00,40.0,24.0,30.28,NW,315,8.0,10.0,55,0.00,,,0.00,TxWx,2013-01-15 16:37:00,
2013-01-15 11:43:00,40.0,24.0,30.28,NNE,22,3.0,4.0,56,0.00,,,0.00,TxWx,2013-01-15 16:43:00,
2013-01-15 11:48:00,40.0,24.0,30.28,NW,315,6.0,7.0,56,0.00,,,0.00,TxWx,2013-01-15 16:48:00,
2013-01-15 11:53:00,40.0,24.0,30.28,NW,315,6.0,6.0,56,0.00,,,0.00,TxWx,2013-01-15 16:53:00,
2013-01-15 11:58:00,40.0,24.0,30.27,NNW,337,8.0,9.0,56,0.00,,,0.00,TxWx,2013-01-15 16:58:00,
2013-01-15 12:04:00,40.0,24.0,30.27,NNE,22,5.0,6.0,56,0.00,,,0.00,TxWx,2013-01-15 17:04:00,
2013-01-15 12:09:00,40.0,24.0,30.26,North,0,5.0,5.0,55,0.00,,,0.00,TxWx,2013-01-15 17:09:00,
2013-01-15 12:15:00,40.0,24.0,30.27,NNE,22,3.0,5.0,55,0.00,,,0.00,TxWx,2013-01-15 17:15:00,
2013-01-15 12:20:00,40.0,24.0,30.27,ENE,67,1.0,2.0,55,0.00,,,0.00,TxWx,2013-01-15 17:20:00,
2013-01-15 12:25:00,40.0,24.0,30.27,North,0,10.0,13.0,55,0.00,,,0.00,TxWx,2013-01-15 17:25:00,
2013-01-15 12:31:00,40.0,24.0,30.27,North,0,9.0,10.0,55,0.00,,,0.00,TxWx,2013-01-15 17:31:00,
2013-01-15 12:36:00,40.0,24.0,30.27,NNE,22,4.0,4.0,55,0.00,,,0.00,TxWx,2013-01-15 17:36:00,
2013-01-15 12:41:00,41.0,25.0,30.26,NNW,337,5.0,5.0,56,0.00,,,0.00,TxWx,2013-01-15 17:41:00,
2013-01-15 12:46:00,41.0,25.0,30.26,North,0,10.0,11.0,55,0.00,,,0.00,TxWx,2013-01-15 17:46:00,
2013-01-15 12:51:00,41.0,25.0,30.25,North,0,5.0,5.0,55,0.00,,,0.00,TxWx,2013-01-15 17:51:00,
2013-01-15 12:57:00,41.0,25.0,30.25,North,0,3.0,4.0,55,0.00,,,0.00,TxWx,2013-01-15 17:57:00,
2013-01-15 13:02:00,41.0,24.0,30.25,NE,45,9.0,10.0,53,0.00,,,0.00,TxWx,2013-01-15 18:02:00,
2013-01-15 13:07:00,41.0,24.0,30.25,NNE,22,7.0,7.0,54,0.00,,,0.00,TxWx,2013-01-15 18:07:00,
2013-01-15 13:13:00,41.0,24.0,30.24,WNW,292,8.0,10.0,53,0.00,,,0.00,TxWx,2013-01-15 18:13:00,
2013-01-15 13:18:00,41.0,24.0,30.24,East,90,7.0,10.0,54,0.00,,,0.00,TxWx,2013-01-15 18:18:00,
2013-01-15 13:23:00,41.0,24.0,30.23,North,0,5.0,5.0,54,0.00,,,0.00,TxWx,2013-01-15 18:23:00,
2013-01-15 13:28:00,41.0,24.0,30.23,NNE,22,10.0,10.0,53,0.00,,,0.00,TxWx,2013-01-15 18:28:00,
2013-01-15 13:34:00,41.0,24.0,30.23,NNE,22,8.0,10.0,53,0.00,,,0.00,TxWx,2013-01-15 18:34:00,
2013-01-15 13:39:00,41.0,24.0,30.23,NE,45,6.0,10.0,54,0.00,,,0.00,TxWx,2013-01-15 18:39:00,
2013-01-15 13:44:00,41.0,24.0,30.24,NNE,22,3.0,5.0,53,0.00,,,0.00,TxWx,2013-01-15 18:44:00,
2013-01-15 13:49:00,42.0,25.0,30.24,NNW,337,6.0,6.0,53,0.00,,,0.00,TxWx,2013-01-15 18:49:00,
2013-01-15 13:54:00,42.0,25.0,30.24,NE,45,9.0,12.0,52,0.00,,,0.00,TxWx,2013-01-15 18:54:00,
2013-01-15 13:59:00,42.0,25.0,30.23,NE,45,8.0,9.0,52,0.00,,,0.00,TxWx,2013-01-15 18:59:00,
2013-01-15 14:00:00,36.0,25.0,30.19,ENE,67,2.0,3.0,67,0.00,,,0.00,TxWx,2013-01-15 19:00:00,
2013-01-15 14:01:00,36.0,25.0,30.19,ENE,67,3.0,3.0,67,0.00,,,0.00,TxWx,2013-01-15 19:01:00,
2013-01-15 14:03:00,36.0,25.0,30.18,NE,45,3.0,3.0,67,0.00,,,0.00,TxWx,2013-01-15 19:03:00,
2013-01-15 14:04:00,42.0,25.0,30.23,East,90,5.0,10.0,53,0.00,,,0.00,TxWx,2013-01-15 19:04:00,
2013-01-15 14:05:00,36.0,25.0,30.18,NNE,22,1.0,3.0,67,0.00,,,0.00,TxWx,2013-01-15 19:05:00,
2013-01-15 14:06:00,36.0,25.0,30.18,NNW,337,2.0,3.0,67,0.00,,,0.00,TxWx,2013-01-15 19:06:00,
2013-01-15 14:07:00,36.0,25.0,30.18,East,90,1.0,1.0,67,0.00,,,0.00,TxWx,2013-01-15 19:07:00,
2013-01-15 14:08:00,36.0,25.0,30.18,NNE,22,1.0,2.0,67,0.00,,,0.00,TxWx,2013-01-15 19:08:00,
2013-01-15 14:09:00,36.0,25.0,30.18,NNE,22,3.0,3.0,67,0.00,,,0.00,TxWx,2013-01-15 19:09:00,
2013-01-15 14:10:00,41.0,24.0,30.23,NE,45,10.0,13.0,52,0.00,,,0.00,TxWx,2013-01-15 19:10:00,
2013-01-15 14:11:00,36.0,25.0,30.17,ESE,112,2.0,3.0,68,0.00,,,0.00,TxWx,2013-01-15 19:11:00,
2013-01-15 14:12:00,36.0,25.0,30.17,North,0,3.0,3.0,68,0.00,,,0.00,TxWx,2013-01-15 19:12:00,
2013-01-15 14:13:00,36.0,25.0,30.17,NNE,22,2.0,3.0,68,0.00,,,0.00,TxWx,2013-01-15 19:13:00,
2013-01-15 14:14:00,36.0,25.0,30.17,North,0,3.0,3.0,68,0.00,,,0.00,TxWx,2013-01-15 19:14:00,
2013-01-15 14:15:00,41.0,24.0,30.23,NE,45,10.0,13.0,53,0.00,,,0.00,TxWx,2013-01-15 19:15:00,
2013-01-15 14:16:00,36.0,25.0,30.18,NNE,22,3.0,3.0,68,0.00,,,0.00,TxWx,2013-01-15 19:16:00,
2013-01-15 14:17:00,36.0,25.0,30.17,NNE,22,2.0,2.0,68,0.00,,,0.00,TxWx,2013-01-15 19:17:00,
2013-01-15 14:18:00,36.0,25.0,30.17,NE,45,2.0,3.0,68,0.00,,,0.00,TxWx,2013-01-15 19:18:00,
2013-01-15 14:19:00,36.0,25.0,30.17,ENE,67,4.0,4.0,68,0.00,,,0.00,TxWx,2013-01-15 19:19:00,
2013-01-15 14:20:00,41.0,24.0,30.23,NNE,22,5.0,6.0,53,0.00,,,0.00,TxWx,2013-01-15 19:20:00,
2013-01-15 14:21:00,36.0,25.0,30.18,NNE,22,2.0,3.0,68,0.00,,,0.00,TxWx,2013-01-15 19:21:00,
2013-01-15 14:22:00,36.0,25.0,30.18,NNE,22,2.0,2.0,68,0.00,,,0.00,TxWx,2013-01-15 19:22:00,
2013-01-15 14:23:00,36.0,25.0,30.17,NE,45,2.0,2.0,68,0.00,,,0.00,TxWx,2013-01-15 19:23:00,
2013-01-15 14:24:00,36.0,25.0,30.17,NE,45,1.0,2.0,68,0.00,,,0.00,TxWx,2013-01-15 19:24:00,
2013-01-15 14:25:00,36.0,25.0,30.17,ENE,67,3.0,3.0,68,0.00,,,0.00,TxWx,2013-01-15 19:25:00,
2013-01-15 14:26:00,41.0,24.0,30.22,NNE,22,9.0,11.0,54,0.00,,,0.00,TxWx,2013-01-15 19:26:00,
2013-01-15 14:27:00,36.0,25.0,30.17,NNE,22,2.0,3.0,68,0.00,,,0.00,TxWx,2013-01-15 19:27:00,
2013-01-15 14:28:00,36.0,25.0,30.17,NNW,337,1.0,2.0,68,0.00,,,0.00,TxWx,2013-01-15 19:28:00,
2013-01-15 14:29:00,36.0,25.0,30.17,NE,45,1.0,2.0,68,0.00,,,0.00,TxWx,2013-01-15 19:29:00,
2013-01-15 14:30:00,36.0,25.0,30.17,NNE,22,3.0,3.0,68,0.00,,,0.00,TxWx,2013-01-15 19:30:00,
2013-01-15 14:31:00,41.0,25.0,30.22,ENE,67,6.0,6.0,54,0.00,,,0.00,TxWx,2013-01-15 19:31:00,
2013-01-15 14:32:00,36.0,25.0,30.17,NE,45,3.0,3.0,68,0.00,,,0.00,TxWx,2013-01-15 19:32:00,
2013-01-15 14:33:00,36.0,25.0,30.17,ENE,67,2.0,2.0,68,0.00,,,0.00,TxWx,2013-01-15 19:33:00,
2013-01-15 14:34:00,36.0,25.0,30.17,NE,45,2.0,3.0,68,0.00,,,0.00,TxWx,2013-01-15 19:34:00,
2013-01-15 14:35:00,36.0,25.0,30.17,East,90,1.0,1.0,68,0.00,,,0.00,TxWx,2013-01-15 19:35:00,
2013-01-15 14:36:00,41.0,24.0,30.22,NNE,22,7.0,7.0,53,0.00,,,0.00,TxWx,2013-01-15 19:36:00,
2013-01-15 14:39:00,36.0,25.0,30.17,ESE,112,1.0,1.0,68,0.00,,,0.00,TxWx,2013-01-15 19:39:00,
2013-01-15 14:40:00,36.0,25.0,30.17,ESE,112,1.0,1.0,68,0.00,,,0.00,TxWx,2013-01-15 19:40:00,
2013-01-15 14:41:00,41.0,24.0,30.21,ENE,67,4.0,8.0,54,0.00,,,0.00,TxWx,2013-01-15 19:41:00,
2013-01-15 14:45:00,36.0,25.0,30.18,ESE,112,0.0,1.0,68,0.00,,,0.00,TxWx,2013-01-15 19:45:00,
2013-01-15 14:46:00,41.0,24.0,30.22,NNE,22,8.0,8.0,54,0.00,,,0.00,TxWx,2013-01-15 19:46:00,
2013-01-15 14:47:00,36.0,25.0,30.18,East,90,1.0,1.0,68,0.00,,,0.00,TxWx,2013-01-15 19:47:00,
2013-01-15 14:48:00,36.0,25.0,30.18,East,90,1.0,1.0,68,0.00,,,0.00,TxWx,2013-01-15 19:48:00,
2013-01-15 14:49:00,36.0,25.0,30.18,ESE,112,0.0,1.0,68,0.00,,,0.00,TxWx,2013-01-15 19:49:00,
2013-01-15 14:52:00,41.0,24.0,30.23,West,270,4.0,6.0,54,0.00,,,0.00,TxWx,2013-01-15 19:52:00,
2013-01-15 14:57:00,41.0,24.0,30.23,NW,315,6.0,7.0,54,0.00,,,0.00,TxWx,2013-01-15 19:57:00,
2013-01-15 15:02:00,41.0,24.0,30.22,NE,45,4.0,8.0,53,0.00,,,0.00,TxWx,2013-01-15 20:02:00,
2013-01-15 15:08:00,41.0,24.0,30.22,ENE,67,3.0,5.0,53,0.00,,,0.00,TxWx,2013-01-15 20:08:00,
2013-01-15 15:13:00,41.0,24.0,30.22,NNE,22,8.0,10.0,53,0.00,,,0.00,TxWx,2013-01-15 20:13:00,
2013-01-15 15:18:00,41.0,24.0,30.23,NNE,22,5.0,6.0,54,0.00,,,0.00,TxWx,2013-01-15 20:18:00,
2013-01-15 15:24:00,41.0,24.0,30.23,NE,45,7.0,7.0,53,0.00,,,0.00,TxWx,2013-01-15 20:24:00,
2013-01-15 15:29:00,41.0,24.0,30.23,NNE,22,6.0,6.0,54,0.00,,,0.00,TxWx,2013-01-15 20:29:00,
2013-01-15 15:34:00,41.0,24.0,30.23,NNE,22,6.0,8.0,53,0.00,,,0.00,TxWx,2013-01-15 20:34:00,
2013-01-15 15:40:00,41.0,24.0,30.23,ESE,112,1.0,2.0,53,0.00,,,0.00,TxWx,2013-01-15 20:40:00,
2013-01-15 15:43:00,36.0,26.0,30.17,NNE,22,0.0,1.0,69,0.00,,,0.00,TxWx,2013-01-15 20:43:00,
2013-01-15 15:44:00,36.0,26.0,30.17,NNE,22,0.0,1.0,69,0.00,,,0.00,TxWx,2013-01-15 20:44:00,
2013-01-15 15:45:00,41.0,24.0,30.24,North,0,6.0,6.0,53,0.00,,,0.00,TxWx,2013-01-15 20:45:00,
2013-01-15 15:47:00,36.0,26.0,30.17,NNE,22,0.0,1.0,69,0.00,,,0.00,TxWx,2013-01-15 20:47:00,
2013-01-15 15:50:00,41.0,24.0,30.24,NW,315,5.0,6.0,53,0.00,,,0.00,TxWx,2013-01-15 20:50:00,
2013-01-15 15:55:00,41.0,24.0,30.24,NNE,22,6.0,8.0,53,0.00,,,0.00,TxWx,2013-01-15 20:55:00,
2013-01-15 15:57:00,36.0,26.0,30.16,WNW,292,0.0,0.0,69,0.00,,,0.00,TxWx,2013-01-15 20:57:00,
2013-01-15 15:58:00,36.0,26.0,30.16,WNW,292,0.0,0.0,69,0.00,,,0.00,TxWx,2013-01-15 20:58:00,
2013-01-15 15:59:00,36.0,26.0,30.16,WNW,292,0.0,0.0,69,0.00,,,0.00,TxWx,2013-01-15 20:59:00,
2013-01-15 16:00:00,41.0,24.0,30.25,ENE,67,7.0,7.0,53,0.00,,,0.00,TxWx,2013-01-15 21:00:00,
2013-01-15 16:04:00,36.0,26.0,30.16,WNW,292,1.0,1.0,69,0.00,,,0.00,TxWx,2013-01-15 21:04:00,
2013-01-15 16:05:00,41.0,24.0,30.24,NE,45,3.0,3.0,54,0.00,,,0.00,TxWx,2013-01-15 21:05:00,
2013-01-15 16:07:00,36.0,26.0,30.16,NE,45,1.0,1.0,69,0.00,,,0.00,TxWx,2013-01-15 21:07:00,
2013-01-15 16:08:00,36.0,26.0,30.16,NNE,22,1.0,1.0,69,0.00,,,0.00,TxWx,2013-01-15 21:08:00,
2013-01-15 16:11:00,40.0,23.0,30.25,NNE,22,5.0,6.0,54,0.00,,,0.00,TxWx,2013-01-15 21:11:00,
2013-01-15 16:12:00,36.0,26.0,30.16,North,0,1.0,1.0,69,0.00,,,0.00,TxWx,2013-01-15 21:12:00,
2013-01-15 16:16:00,40.0,24.0,30.24,NE,45,6.0,6.0,54,0.00,,,0.00,TxWx,2013-01-15 21:16:00,
2013-01-15 16:21:00,40.0,24.0,30.24,NNE,22,7.0,8.0,54,0.00,,,0.00,TxWx,2013-01-15 21:21:00,
2013-01-15 16:26:00,40.0,24.0,30.24,WNW,292,4.0,5.0,54,0.00,,,0.00,TxWx,2013-01-15 21:26:00,
2013-01-15 16:31:00,40.0,24.0,30.24,NE,45,4.0,5.0,55,0.00,,,0.00,TxWx,2013-01-15 21:31:00,
2013-01-15 16:36:00,40.0,24.0,30.24,NNE,22,4.0,5.0,55,0.00,,,0.00,TxWx,2013-01-15 21:36:00,
2013-01-15 16:42:00,40.0,24.0,30.25,ENE,67,5.0,6.0,55,0.00,,,0.00,TxWx,2013-01-15 21:42:00,
2013-01-15 16:47:00,40.0,24.0,30.24,NNE,22,5.0,5.0,55,0.00,,,0.00,TxWx,2013-01-15 21:47:00,
2013-01-15 16:52:00,40.0,24.0,30.24,NNE,22,5.0,5.0,56,0.00,,,0.00,TxWx,2013-01-15 21:52:00,
2013-01-15 16:57:00,39.0,23.0,30.24,NNE,22,5.0,5.0,56,0.00,,,0.00,TxWx,2013-01-15 21:57:00,
2013-01-15 17:02:00,39.0,24.0,30.24,ENE,67,3.0,5.0,56,0.00,,,0.00,TxWx,2013-01-15 22:02:00,
2013-01-15 17:08:00,39.0,24.0,30.24,NNE,22,3.0,3.0,56,0.00,,,0.00,TxWx,2013-01-15 22:08:00,
2013-01-15 17:13:00,39.0,24.0,30.24,North,0,3.0,4.0,57,0.00,,,0.00,TxWx,2013-01-15 22:13:00,
2013-01-15 17:18:00,39.0,24.0,30.24,NNE,22,4.0,5.0,57,0.00,,,0.00,TxWx,2013-01-15 22:18:00,
2013-01-15 17:23:00,39.0,24.0,30.25,NNE,22,3.0,3.0,57,0.00,,,0.00,TxWx,2013-01-15 22:23:00,
2013-01-15 17:29:00,39.0,24.0,30.25,NNE,22,4.0,4.0,57,0.00,,,0.00,TxWx,2013-01-15 22:29:00,
2013-01-15 17:34:00,39.0,24.0,30.26,NNE,22,1.0,2.0,57,0.00,,,0.00,TxWx,2013-01-15 22:34:00,
2013-01-15 17:39:00,38.0,23.0,30.25,NE,45,2.0,2.0,57,0.00,,,0.00,TxWx,2013-01-15 22:39:00,
2013-01-15 17:44:00,38.0,23.0,30.25,NNE,22,2.0,3.0,58,0.00,,,0.00,TxWx,2013-01-15 22:44:00,
2013-01-15 17:50:00,38.0,23.0,30.26,NE,45,2.0,3.0,58,0.00,,,0.00,TxWx,2013-01-15 22:50:00,
2013-01-15 17:55:00,38.0,24.0,30.26,NNE,22,3.0,4.0,58,0.00,,,0.00,TxWx,2013-01-15 22:55:00,
2013-01-15 18:01:00,38.0,24.0,30.25,ENE,67,3.0,3.0,58,0.00,,,0.00,TxWx,2013-01-15 23:01:00,
2013-01-15 18:06:00,38.0,24.0,30.25,NNE,22,3.0,4.0,59,0.00,,,0.00,TxWx,2013-01-15 23:06:00,
2013-01-15 18:11:00,38.0,24.0,30.25,NNE,22,2.0,3.0,59,0.00,,,0.00,TxWx,2013-01-15 23:11:00,
2013-01-15 18:16:00,38.0,24.0,30.25,NNE,22,5.0,5.0,60,0.00,,,0.00,TxWx,2013-01-15 23:16:00,
2013-01-15 18:21:00,38.0,24.0,30.24,NE,45,4.0,5.0,60,0.00,,,0.00,TxWx,2013-01-15 23:21:00,
2013-01-15 18:26:00,38.0,24.0,30.25,NNE,22,5.0,5.0,60,0.00,,,0.00,TxWx,2013-01-15 23:26:00,
2013-01-15 18:31:00,38.0,24.0,30.25,NE,45,5.0,6.0,60,0.00,,,0.00,TxWx,2013-01-15 23:31:00,
2013-01-15 18:37:00,38.0,24.0,30.25,ENE,67,5.0,5.0,60,0.00,,,0.00,TxWx,2013-01-15 23:37:00,
2013-01-15 18:42:00,38.0,24.0,30.26,NE,45,5.0,6.0,60,0.00,,,0.00,TxWx,2013-01-15 23:42:00,
2013-01-15 18:47:00,38.0,24.0,30.26,NNE,22,3.0,4.0,60,0.00,,,0.00,TxWx,2013-01-15 23:47:00,
2013-01-15 18:52:00,37.0,24.0,30.26,NNE,22,2.0,3.0,61,0.00,,,0.00,TxWx,2013-01-15 23:52:00,
2013-01-15 18:57:00,37.0,24.0,30.25,ENE,67,3.0,3.0,61,0.00,,,0.00,TxWx,2013-01-15 23:57:00,
2013-01-15 19:02:00,37.0,24.0,30.25,ENE,67,2.0,3.0,61,0.00,,,0.00,TxWx,2013-01-16 00:02:00,
2013-01-15 19:08:00,37.0,24.0,30.25,NE,45,3.0,3.0,61,0.00,,,0.00,TxWx,2013-01-16 00:08:00,
2013-01-15 19:13:00,37.0,24.0,30.25,NE,45,3.0,3.0,61,0.00,,,0.00,TxWx,2013-01-16 00:13:00,
2013-01-15 19:18:00,37.0,24.0,30.25,NE,45,3.0,4.0,61,0.00,,,0.00,TxWx,2013-01-16 00:18:00,
2013-01-15 19:23:00,37.0,24.0,30.25,ENE,67,2.0,2.0,61,0.00,,,0.00,TxWx,2013-01-16 00:23:00,
2013-01-15 19:28:00,37.0,24.0,30.25,NE,45,1.0,1.0,62,0.00,,,0.00,TxWx,2013-01-16 00:28:00,
2013-01-15 19:33:00,37.0,24.0,30.24,NNE,22,1.0,2.0,62,0.00,,,0.00,TxWx,2013-01-16 00:33:00,
2013-01-15 19:38:00,37.0,24.0,30.24,NNE,22,3.0,3.0,62,0.00,,,0.00,TxWx,2013-01-16 00:38:00,
2013-01-15 19:44:00,37.0,24.0,30.24,NE,45,3.0,4.0,62,0.00,,,0.00,TxWx,2013-01-16 00:44:00,
2013-01-15 19:49:00,37.0,24.0,30.24,NNE,22,3.0,3.0,63,0.00,,,0.00,TxWx,2013-01-16 00:49:00,
2013-01-15 19:54:00,37.0,24.0,30.23,NE,45,3.0,4.0,63,0.00,,,0.00,TxWx,2013-01-16 00:54:00,
2013-01-15 19:59:00,37.0,24.0,30.23,ENE,67,1.0,2.0,63,0.00,,,0.00,TxWx,2013-01-16 00:59:00,
2013-01-15 20:05:00,37.0,25.0,30.23,NE,45,2.0,3.0,63,0.00,,,0.00,TxWx,2013-01-16 01:05:00,
2013-01-15 20:10:00,37.0,24.0,30.23,NNE,22,3.0,4.0,63,0.00,,,0.00,TxWx,2013-01-16 01:10:00,
2013-01-15 20:15:00,37.0,24.0,30.23,NNE,22,5.0,5.0,63,0.00,,,0.00,TxWx,2013-01-16 01:15:00,
2013-01-15 20:20:00,37.0,24.0,30.24,NNE,22,3.0,3.0,63,0.00,,,0.00,TxWx,2013-01-16 01:20:00,
2013-01-15 20:25:00,37.0,24.0,30.24,NNE,22,4.0,5.0,63,0.00,,,0.00,TxWx,2013-01-16 01:25:00,
2013-01-15 20:30:00,37.0,25.0,30.24,NNE,22,3.0,4.0,63,0.00,,,0.00,TxWx,2013-01-16 01:30:00,
2013-01-15 20:35:00,37.0,25.0,30.24,NE,45,3.0,4.0,63,0.00,,,0.00,TxWx,2013-01-16 01:35:00,
2013-01-15 20:40:00,37.0,25.0,30.23,NE,45,3.0,4.0,64,0.00,,,0.00,TxWx,2013-01-16 01:40:00,
2013-01-15 20:45:00,37.0,25.0,30.24,NNE,22,3.0,3.0,64,0.00,,,0.00,TxWx,2013-01-16 01:45:00,
2013-01-15 20:51:00,36.0,24.0,30.23,NE,45,2.0,3.0,64,0.00,,,0.00,TxWx,2013-01-16 01:51:00,
2013-01-15 20:56:00,36.0,24.0,30.23,NNE,22,3.0,3.0,64,0.00,,,0.00,TxWx,2013-01-16 01:56:00,
2013-01-15 21:01:00,36.0,24.0,30.22,NNE,22,2.0,5.0,64,0.00,,,0.00,TxWx,2013-01-16 02:01:00,
2013-01-15 21:06:00,36.0,24.0,30.22,NNE,22,3.0,3.0,64,0.00,,,0.00,TxWx,2013-01-16 02:06:00,
2013-01-15 21:11:00,36.0,24.0,30.22,NNE,22,3.0,3.0,64,0.00,,,0.00,TxWx,2013-01-16 02:11:00,
2013-01-15 21:16:00,36.0,24.0,30.22,North,0,1.0,2.0,64,0.00,,,0.00,TxWx,2013-01-16 02:16:00,
2013-01-15 21:22:00,36.0,24.0,30.21,NNE,22,3.0,3.0,64,0.00,,,0.00,TxWx,2013-01-16 02:22:00,
2013-01-15 21:27:00,36.0,24.0,30.21,ENE,67,1.0,2.0,64,0.00,,,0.00,TxWx,2013-01-16 02:27:00,
2013-01-15 21:32:00,36.0,24.0,30.20,North,0,3.0,4.0,65,0.00,,,0.00,TxWx,2013-01-16 02:32:00,
2013-01-15 21:37:00,36.0,24.0,30.20,North,0,3.0,3.0,65,0.00,,,0.00,TxWx,2013-01-16 02:37:00,
2013-01-15 21:43:00,36.0,24.0,30.20,NNE,22,2.0,2.0,65,0.00,,,0.00,TxWx,2013-01-16 02:43:00,
2013-01-15 21:48:00,36.0,24.0,30.20,NNE,22,2.0,3.0,65,0.00,,,0.00,TxWx,2013-01-16 02:48:00,
2013-01-15 21:53:00,36.0,24.0,30.20,NE,45,3.0,3.0,65,0.00,,,0.00,TxWx,2013-01-16 02:53:00,
2013-01-15 21:58:00,36.0,24.0,30.21,NNE,22,1.0,2.0,65,0.00,,,0.00,TxWx,2013-01-16 02:58:00,
2013-01-15 22:03:00,36.0,24.0,30.21,NNE,22,1.0,1.0,65,0.00,,,0.00,TxWx,2013-01-16 03:03:00,
2013-01-15 22:08:00,36.0,24.0,30.20,NNE,22,2.0,2.0,65,0.00,,,0.00,TxWx,2013-01-16 03:08:00,
2013-01-15 22:13:00,36.0,24.0,30.20,NNE,22,3.0,3.0,65,0.00,,,0.00,TxWx,2013-01-16 03:13:00,
2013-01-15 22:18:00,36.0,24.0,30.21,East,90,2.0,3.0,65,0.00,,,0.00,TxWx,2013-01-16 03:18:00,
2013-01-15 22:23:00,36.0,24.0,30.20,NNE,22,5.0,5.0,65,0.00,,,0.00,TxWx,2013-01-16 03:23:00,
2013-01-15 22:28:00,36.0,24.0,30.20,NNE,22,4.0,5.0,65,0.00,,,0.00,TxWx,2013-01-16 03:28:00,
2013-01-15 22:33:00,36.0,24.0,30.20,NNE,22,4.0,4.0,64,0.00,,,0.00,TxWx,2013-01-16 03:33:00,
2013-01-15 22:39:00,36.0,24.0,30.20,NNE,22,5.0,5.0,64,0.00,,,0.00,TxWx,2013-01-16 03:39:00,
2013-01-15 22:44:00,36.0,24.0,30.19,NNE,22,6.0,6.0,64,0.00,,,0.00,TxWx,2013-01-16 03:44:00,
2013-01-15 22:49:00,36.0,24.0,30.19,NNE,22,4.0,5.0,64,0.00,,,0.00,TxWx,2013-01-16 03:49:00,
2013-01-15 22:55:00,36.0,24.0,30.19,NNE,22,3.0,3.0,64,0.00,,,0.00,TxWx,2013-01-16 03:55:00,
2013-01-15 23:00:00,36.0,24.0,30.19,NNE,22,5.0,5.0,65,0.00,,,0.00,TxWx,2013-01-16 04:00:00,
2013-01-15 23:05:00,36.0,24.0,30.20,North,0,1.0,2.0,65,0.00,,,0.00,TxWx,2013-01-16 04:05:00,
2013-01-15 23:10:00,36.0,24.0,30.20,NW,315,2.0,3.0,65,0.00,,,0.00,TxWx,2013-01-16 04:10:00,
2013-01-15 23:15:00,36.0,24.0,30.20,SE,135,2.0,3.0,65,0.00,,,0.00,TxWx,2013-01-16 04:15:00,
2013-01-15 23:21:00,36.0,24.0,30.20,NNE,22,3.0,4.0,65,0.00,,,0.00,TxWx,2013-01-16 04:21:00,
2013-01-15 23:26:00,36.0,24.0,30.21,East,90,2.0,3.0,65,0.00,,,0.00,TxWx,2013-01-16 04:26:00,
2013-01-15 23:31:00,36.0,24.0,30.21,NE,45,3.0,3.0,65,0.00,,,0.00,TxWx,2013-01-16 04:31:00,
2013-01-15 23:36:00,36.0,24.0,30.21,ENE,67,1.0,2.0,65,0.00,,,0.00,TxWx,2013-01-16 04:36:00,
2013-01-15 23:41:00,36.0,25.0,30.21,NE,45,1.0,1.0,66,0.00,,,0.00,TxWx,2013-01-16 04:41:00,
2013-01-15 23:46:00,36.0,25.0,30.21,NNE,22,1.0,2.0,66,0.00,,,0.00,TxWx,2013-01-16 04:46:00,
2013-01-15 23:52:00,36.0,25.0,30.21,North,0,2.0,2.0,66,0.00,,,0.00,TxWx,2013-01-16 04:52:00,
2013-01-15 23:57:00,36.0,25.0,30.20,NE,45,2.0,2.0,67,0.00,,,0.00,TxWx,2013-01-16 04:57:00,